sensor_id;sensor_type;location;lat;lon;timestamp;P1;durP1;ratioP1;P2;durP2;ratioP2
20627;SDS011;10473;42.734;24.258;2022-09-03T00:00:24;7.20;;;6.00;;
20627;SDS011;10473;42.734;24.258;2022-09-03T00:02:56;8.07;;;6.63;;
20627;SDS011;10473;42.734;24.258;2022-09-03T00:05:30;8.43;;;5.40;;
20627;SDS011;10473;42.734;24.258;2022-09-03T00:08:02;7.30;;;5.70;;
20627;SDS011;10473;42.734;24.258;2022-09-03T00:10:36;6.90;;;5.30;;
20627;SDS011;10473;42.734;24.258;2022-09-03T00:13:13;9.00;;;6.00;;
20627;SDS011;10473;42.734;24.258;2022-09-03T00:15:47;7.33;;;5.63;;
20627;SDS011;10473;42.734;24.258;2022-09-03T00:18:18;7.53;;;5.77;;
20627;SDS011;10473;42.734;24.258;2022-09-03T00:20:50;7.07;;;5.80;;
20627;SDS011;10473;42.734;24.258;2022-09-03T00:23:21;7.63;;;5.80;;
20627;SDS011;10473;42.734;24.258;2022-09-03T00:25:55;7.50;;;6.20;;
20627;SDS011;10473;42.734;24.258;2022-09-03T00:28:29;7.70;;;6.10;;
20627;SDS011;10473;42.734;24.258;2022-09-03T00:31:06;9.53;;;7.27;;
20627;SDS011;10473;42.734;24.258;2022-09-03T00:33:39;7.70;;;6.33;;
20627;SDS011;10473;42.734;24.258;2022-09-03T00:36:12;6.87;;;5.63;;
20627;SDS011;10473;42.734;24.258;2022-09-03T00:38:42;6.93;;;5.37;;
20627;SDS011;10473;42.734;24.258;2022-09-03T00:41:14;7.53;;;5.10;;
20627;SDS011;10473;42.734;24.258;2022-09-03T00:43:55;7.23;;;5.67;;
20627;SDS011;10473;42.734;24.258;2022-09-03T00:46:37;9.30;;;5.20;;
20627;SDS011;10473;42.734;24.258;2022-09-03T00:52:04;8.80;;;5.37;;
20627;SDS011;10473;42.734;24.258;2022-09-03T00:54:41;12.93;;;4.93;;
20627;SDS011;10473;42.734;24.258;2022-09-03T00:57:20;8.87;;;5.43;;
20627;SDS011;10473;42.734;24.258;2022-09-03T00:59:56;6.97;;;4.70;;
20627;SDS011;10473;42.734;24.258;2022-09-03T01:02:35;8.10;;;4.57;;
20627;SDS011;10473;42.734;24.258;2022-09-03T01:05:18;9.53;;;4.87;;
20627;SDS011;10473;42.734;24.258;2022-09-03T01:07:54;8.70;;;5.33;;
20627;SDS011;10473;42.734;24.258;2022-09-03T01:10:32;9.17;;;5.33;;
20627;SDS011;10473;42.734;24.258;2022-09-03T01:13:09;6.40;;;4.60;;
20627;SDS011;10473;42.734;24.258;2022-09-03T01:15:44;9.57;;;4.80;;
20627;SDS011;10473;42.734;24.258;2022-09-03T01:18:26;5.53;;;3.87;;
20627;SDS011;10473;42.734;24.258;2022-09-03T01:21:09;7.30;;;5.20;;
20627;SDS011;10473;42.734;24.258;2022-09-03T01:24:05;7.20;;;3.27;;
20627;SDS011;10473;42.734;24.258;2022-09-03T01:26:54;6.23;;;4.53;;
20627;SDS011;10473;42.734;24.258;2022-09-03T01:29:39;7.40;;;5.13;;
20627;SDS011;10473;42.734;24.258;2022-09-03T01:32:15;7.93;;;4.57;;
20627;SDS011;10473;42.734;24.258;2022-09-03T01:34:51;8.13;;;5.37;;
20627;SDS011;10473;42.734;24.258;2022-09-03T01:37:27;9.00;;;4.97;;
20627;SDS011;10473;42.734;24.258;2022-09-03T01:40:06;9.30;;;5.03;;
20627;SDS011;10473;42.734;24.258;2022-09-03T01:42:47;8.67;;;5.70;;
20627;SDS011;10473;42.734;24.258;2022-09-03T01:45:32;8.13;;;3.23;;
20627;SDS011;10473;42.734;24.258;2022-09-03T01:48:20;6.93;;;4.17;;
20627;SDS011;10473;42.734;24.258;2022-09-03T01:50:57;13.57;;;4.17;;
20627;SDS011;10473;42.734;24.258;2022-09-03T01:53:40;8.67;;;4.07;;
20627;SDS011;10473;42.734;24.258;2022-09-03T01:56:26;7.60;;;4.70;;
20627;SDS011;10473;42.734;24.258;2022-09-03T01:59:02;6.43;;;4.50;;
20627;SDS011;10473;42.734;24.258;2022-09-03T02:01:38;9.93;;;4.77;;
20627;SDS011;10473;42.734;24.258;2022-09-03T02:04:13;8.53;;;4.57;;
20627;SDS011;10473;42.734;24.258;2022-09-03T02:06:45;10.67;;;3.27;;
20627;SDS011;10473;42.734;24.258;2022-09-03T02:09:14;6.80;;;3.70;;
20627;SDS011;10473;42.734;24.258;2022-09-03T02:11:43;5.20;;;4.10;;
20627;SDS011;10473;42.734;24.258;2022-09-03T02:14:20;6.47;;;3.53;;
20627;SDS011;10473;42.734;24.258;2022-09-03T02:16:49;5.27;;;3.57;;
20627;SDS011;10473;42.734;24.258;2022-09-03T02:19:17;5.27;;;3.00;;
20627;SDS011;10473;42.734;24.258;2022-09-03T02:21:46;4.27;;;3.13;;
20627;SDS011;10473;42.734;24.258;2022-09-03T02:24:17;4.90;;;3.77;;
20627;SDS011;10473;42.734;24.258;2022-09-03T02:26:46;4.83;;;3.90;;
20627;SDS011;10473;42.734;24.258;2022-09-03T02:29:15;5.47;;;3.50;;
20627;SDS011;10473;42.734;24.258;2022-09-03T02:31:43;8.07;;;4.10;;
20627;SDS011;10473;42.734;24.258;2022-09-03T02:34:12;6.33;;;3.40;;
20627;SDS011;10473;42.734;24.258;2022-09-03T02:36:41;6.23;;;2.80;;
20627;SDS011;10473;42.734;24.258;2022-09-03T02:39:11;6.27;;;2.50;;
20627;SDS011;10473;42.734;24.258;2022-09-03T02:41:39;16.17;;;2.93;;
20627;SDS011;10473;42.734;24.258;2022-09-03T02:44:07;6.63;;;3.60;;
20627;SDS011;10473;42.734;24.258;2022-09-03T02:46:40;5.63;;;3.70;;
20627;SDS011;10473;42.734;24.258;2022-09-03T02:49:12;18.90;;;3.33;;
20627;SDS011;10473;42.734;24.258;2022-09-03T02:51:42;11.10;;;3.50;;
20627;SDS011;10473;42.734;24.258;2022-09-03T02:54:11;9.83;;;3.37;;
20627;SDS011;10473;42.734;24.258;2022-09-03T02:56:39;5.90;;;3.57;;
20627;SDS011;10473;42.734;24.258;2022-09-03T02:59:07;9.97;;;3.63;;
20627;SDS011;10473;42.734;24.258;2022-09-03T03:01:35;9.77;;;3.20;;
20627;SDS011;10473;42.734;24.258;2022-09-03T03:04:03;5.27;;;3.83;;
20627;SDS011;10473;42.734;24.258;2022-09-03T03:06:32;7.13;;;3.70;;
20627;SDS011;10473;42.734;24.258;2022-09-03T03:09:00;6.07;;;3.20;;
20627;SDS011;10473;42.734;24.258;2022-09-03T03:11:30;10.80;;;3.13;;
20627;SDS011;10473;42.734;24.258;2022-09-03T03:13:58;7.80;;;2.83;;
20627;SDS011;10473;42.734;24.258;2022-09-03T03:16:26;8.43;;;3.47;;
20627;SDS011;10473;42.734;24.258;2022-09-03T03:18:54;5.03;;;3.33;;
20627;SDS011;10473;42.734;24.258;2022-09-03T03:21:22;3.90;;;3.37;;
20627;SDS011;10473;42.734;24.258;2022-09-03T03:23:51;5.93;;;2.70;;
20627;SDS011;10473;42.734;24.258;2022-09-03T03:26:19;5.27;;;3.70;;
20627;SDS011;10473;42.734;24.258;2022-09-03T03:28:49;4.20;;;3.13;;
20627;SDS011;10473;42.734;24.258;2022-09-03T03:31:22;5.67;;;3.40;;
20627;SDS011;10473;42.734;24.258;2022-09-03T03:33:50;4.60;;;2.93;;
20627;SDS011;10473;42.734;24.258;2022-09-03T03:36:19;3.80;;;3.20;;
20627;SDS011;10473;42.734;24.258;2022-09-03T03:38:47;4.87;;;3.10;;
20627;SDS011;10473;42.734;24.258;2022-09-03T03:41:17;5.40;;;2.50;;
20627;SDS011;10473;42.734;24.258;2022-09-03T03:43:46;9.03;;;2.57;;
20627;SDS011;10473;42.734;24.258;2022-09-03T03:46:18;4.20;;;2.90;;
20627;SDS011;10473;42.734;24.258;2022-09-03T03:48:47;4.00;;;3.27;;
20627;SDS011;10473;42.734;24.258;2022-09-03T03:51:15;4.80;;;3.50;;
20627;SDS011;10473;42.734;24.258;2022-09-03T03:53:43;7.87;;;2.30;;
20627;SDS011;10473;42.734;24.258;2022-09-03T03:56:12;6.97;;;2.60;;
20627;SDS011;10473;42.734;24.258;2022-09-03T03:58:42;4.17;;;3.00;;
20627;SDS011;10473;42.734;24.258;2022-09-03T04:01:11;6.53;;;2.27;;
20627;SDS011;10473;42.734;24.258;2022-09-03T04:03:40;9.60;;;2.77;;
20627;SDS011;10473;42.734;24.258;2022-09-03T04:06:08;6.90;;;3.40;;
20627;SDS011;10473;42.734;24.258;2022-09-03T04:08:37;4.60;;;3.60;;
20627;SDS011;10473;42.734;24.258;2022-09-03T04:11:07;5.47;;;3.33;;
20627;SDS011;10473;42.734;24.258;2022-09-03T04:13:36;3.97;;;2.60;;
20627;SDS011;10473;42.734;24.258;2022-09-03T04:16:07;3.10;;;2.73;;
20627;SDS011;10473;42.734;24.258;2022-09-03T04:18:36;7.43;;;2.10;;
20627;SDS011;10473;42.734;24.258;2022-09-03T04:21:05;3.37;;;2.73;;
20627;SDS011;10473;42.734;24.258;2022-09-03T04:23:36;2.97;;;2.27;;
20627;SDS011;10473;42.734;24.258;2022-09-03T04:26:05;3.23;;;2.13;;
20627;SDS011;10473;42.734;24.258;2022-09-03T04:28:34;3.03;;;2.20;;
20627;SDS011;10473;42.734;24.258;2022-09-03T04:31:02;3.40;;;2.33;;
20627;SDS011;10473;42.734;24.258;2022-09-03T04:33:32;3.00;;;2.50;;
20627;SDS011;10473;42.734;24.258;2022-09-03T04:36:02;5.03;;;2.53;;
20627;SDS011;10473;42.734;24.258;2022-09-03T04:38:31;4.00;;;2.70;;
20627;SDS011;10473;42.734;24.258;2022-09-03T04:40:59;2.67;;;2.20;;
20627;SDS011;10473;42.734;24.258;2022-09-03T04:43:28;4.23;;;2.37;;
20627;SDS011;10473;42.734;24.258;2022-09-03T04:45:56;6.83;;;2.43;;
20627;SDS011;10473;42.734;24.258;2022-09-03T04:48:25;2.70;;;1.83;;
20627;SDS011;10473;42.734;24.258;2022-09-03T04:50:59;2.40;;;2.13;;
20627;SDS011;10473;42.734;24.258;2022-09-03T04:53:31;3.27;;;1.80;;
20627;SDS011;10473;42.734;24.258;2022-09-03T04:55:59;4.07;;;1.70;;
20627;SDS011;10473;42.734;24.258;2022-09-03T04:58:27;2.57;;;2.37;;
20627;SDS011;10473;42.734;24.258;2022-09-03T05:00:55;2.87;;;2.10;;
20627;SDS011;10473;42.734;24.258;2022-09-03T05:03:23;2.47;;;2.00;;
20627;SDS011;10473;42.734;24.258;2022-09-03T05:05:51;2.77;;;2.10;;
20627;SDS011;10473;42.734;24.258;2022-09-03T05:08:21;3.10;;;2.50;;
20627;SDS011;10473;42.734;24.258;2022-09-03T05:10:56;2.03;;;1.83;;
20627;SDS011;10473;42.734;24.258;2022-09-03T05:13:25;4.43;;;2.83;;
20627;SDS011;10473;42.734;24.258;2022-09-03T05:15:57;4.00;;;2.77;;
20627;SDS011;10473;42.734;24.258;2022-09-03T05:18:25;3.07;;;2.60;;
20627;SDS011;10473;42.734;24.258;2022-09-03T05:20:57;3.07;;;2.43;;
20627;SDS011;10473;42.734;24.258;2022-09-03T05:23:27;4.67;;;2.57;;
20627;SDS011;10473;42.734;24.258;2022-09-03T05:25:55;3.40;;;2.20;;
20627;SDS011;10473;42.734;24.258;2022-09-03T05:28:24;2.83;;;2.60;;
20627;SDS011;10473;42.734;24.258;2022-09-03T05:30:59;2.93;;;2.47;;
20627;SDS011;10473;42.734;24.258;2022-09-03T05:33:27;4.20;;;2.80;;
20627;SDS011;10473;42.734;24.258;2022-09-03T05:35:59;4.23;;;3.33;;
20627;SDS011;10473;42.734;24.258;2022-09-03T05:38:29;4.43;;;3.70;;
20627;SDS011;10473;42.734;24.258;2022-09-03T05:40:57;7.03;;;3.93;;
20627;SDS011;10473;42.734;24.258;2022-09-03T05:43:26;7.77;;;3.07;;
20627;SDS011;10473;42.734;24.258;2022-09-03T05:45:56;4.20;;;3.13;;
20627;SDS011;10473;42.734;24.258;2022-09-03T05:48:25;6.87;;;3.17;;
20627;SDS011;10473;42.734;24.258;2022-09-03T05:50:59;7.27;;;3.80;;
20627;SDS011;10473;42.734;24.258;2022-09-03T05:53:29;5.00;;;3.57;;
20627;SDS011;10473;42.734;24.258;2022-09-03T05:56:00;4.67;;;3.20;;
20627;SDS011;10473;42.734;24.258;2022-09-03T05:58:29;5.73;;;3.93;;
20627;SDS011;10473;42.734;24.258;2022-09-03T06:00:58;4.43;;;3.37;;
20627;SDS011;10473;42.734;24.258;2022-09-03T06:03:25;4.90;;;4.03;;
20627;SDS011;10473;42.734;24.258;2022-09-03T06:05:53;4.80;;;4.17;;
20627;SDS011;10473;42.734;24.258;2022-09-03T06:08:21;4.50;;;3.70;;
20627;SDS011;10473;42.734;24.258;2022-09-03T06:10:50;8.93;;;3.70;;
20627;SDS011;10473;42.734;24.258;2022-09-03T06:13:24;5.03;;;3.83;;
20627;SDS011;10473;42.734;24.258;2022-09-03T06:15:55;6.33;;;4.00;;
20627;SDS011;10473;42.734;24.258;2022-09-03T06:18:23;7.73;;;5.03;;
20627;SDS011;10473;42.734;24.258;2022-09-03T06:20:53;7.93;;;5.17;;
20627;SDS011;10473;42.734;24.258;2022-09-03T06:23:21;7.43;;;4.87;;
20627;SDS011;10473;42.734;24.258;2022-09-03T06:25:59;7.33;;;5.50;;
20627;SDS011;10473;42.734;24.258;2022-09-03T06:28:28;5.83;;;4.37;;
20627;SDS011;10473;42.734;24.258;2022-09-03T06:30:57;7.97;;;5.53;;
20627;SDS011;10473;42.734;24.258;2022-09-03T06:33:25;8.00;;;5.93;;
20627;SDS011;10473;42.734;24.258;2022-09-03T06:35:55;7.63;;;4.63;;
20627;SDS011;10473;42.734;24.258;2022-09-03T06:38:24;7.43;;;5.20;;
20627;SDS011;10473;42.734;24.258;2022-09-03T06:40:54;8.73;;;5.53;;
20627;SDS011;10473;42.734;24.258;2022-09-03T06:43:25;7.63;;;4.50;;
20627;SDS011;10473;42.734;24.258;2022-09-03T06:45:53;6.97;;;4.93;;
20627;SDS011;10473;42.734;24.258;2022-09-03T06:48:21;7.93;;;4.87;;
20627;SDS011;10473;42.734;24.258;2022-09-03T06:50:53;5.83;;;3.87;;
20627;SDS011;10473;42.734;24.258;2022-09-03T06:53:22;5.90;;;4.03;;
20627;SDS011;10473;42.734;24.258;2022-09-03T06:55:52;7.93;;;3.97;;
20627;SDS011;10473;42.734;24.258;2022-09-03T06:58:21;5.67;;;4.13;;
20627;SDS011;10473;42.734;24.258;2022-09-03T07:00:50;6.33;;;3.90;;
20627;SDS011;10473;42.734;24.258;2022-09-03T07:03:19;6.57;;;4.13;;
20627;SDS011;10473;42.734;24.258;2022-09-03T07:05:47;6.30;;;4.10;;
20627;SDS011;10473;42.734;24.258;2022-09-03T07:08:15;8.40;;;4.03;;
20627;SDS011;10473;42.734;24.258;2022-09-03T07:10:44;7.17;;;4.70;;
20627;SDS011;10473;42.734;24.258;2022-09-03T07:13:13;7.73;;;4.63;;
20627;SDS011;10473;42.734;24.258;2022-09-03T07:15:41;7.13;;;4.90;;
20627;SDS011;10473;42.734;24.258;2022-09-03T07:18:10;7.33;;;4.23;;
20627;SDS011;10473;42.734;24.258;2022-09-03T07:20:38;9.33;;;4.90;;
20627;SDS011;10473;42.734;24.258;2022-09-03T07:23:06;6.03;;;4.57;;
20627;SDS011;10473;42.734;24.258;2022-09-03T07:25:33;6.70;;;4.70;;
20627;SDS011;10473;42.734;24.258;2022-09-03T07:28:04;5.53;;;4.37;;
20627;SDS011;10473;42.734;24.258;2022-09-03T07:30:31;5.90;;;3.87;;
20627;SDS011;10473;42.734;24.258;2022-09-03T07:32:59;5.90;;;4.40;;
20627;SDS011;10473;42.734;24.258;2022-09-03T07:35:30;5.73;;;4.67;;
20627;SDS011;10473;42.734;24.258;2022-09-03T07:38:02;5.37;;;4.33;;
20627;SDS011;10473;42.734;24.258;2022-09-03T07:40:30;3.87;;;3.47;;
20627;SDS011;10473;42.734;24.258;2022-09-03T07:42:58;3.63;;;3.30;;
20627;SDS011;10473;42.734;24.258;2022-09-03T07:45:28;4.77;;;2.73;;
20627;SDS011;10473;42.734;24.258;2022-09-03T07:47:56;3.10;;;2.77;;
20627;SDS011;10473;42.734;24.258;2022-09-03T07:50:23;2.60;;;2.23;;
20627;SDS011;10473;42.734;24.258;2022-09-03T07:52:56;3.60;;;2.30;;
20627;SDS011;10473;42.734;24.258;2022-09-03T07:55:24;2.27;;;2.03;;
20627;SDS011;10473;42.734;24.258;2022-09-03T07:57:54;3.23;;;2.40;;
20627;SDS011;10473;42.734;24.258;2022-09-03T08:00:22;3.93;;;2.73;;
20627;SDS011;10473;42.734;24.258;2022-09-03T08:02:50;4.27;;;3.43;;
20627;SDS011;10473;42.734;24.258;2022-09-03T08:05:18;4.13;;;3.13;;
20627;SDS011;10473;42.734;24.258;2022-09-03T08:07:46;4.70;;;3.40;;
20627;SDS011;10473;42.734;24.258;2022-09-03T08:10:15;4.30;;;3.13;;
20627;SDS011;10473;42.734;24.258;2022-09-03T08:12:43;3.37;;;2.47;;
20627;SDS011;10473;42.734;24.258;2022-09-03T08:15:11;3.73;;;3.37;;
20627;SDS011;10473;42.734;24.258;2022-09-03T08:17:42;4.03;;;3.50;;
20627;SDS011;10473;42.734;24.258;2022-09-03T08:20:10;4.27;;;3.60;;
20627;SDS011;10473;42.734;24.258;2022-09-03T08:22:37;3.27;;;2.97;;
20627;SDS011;10473;42.734;24.258;2022-09-03T08:25:06;3.47;;;3.17;;
20627;SDS011;10473;42.734;24.258;2022-09-03T08:27:36;3.33;;;3.03;;
20627;SDS011;10473;42.734;24.258;2022-09-03T08:30:04;3.80;;;3.10;;
20627;SDS011;10473;42.734;24.258;2022-09-03T08:32:36;4.33;;;3.30;;
20627;SDS011;10473;42.734;24.258;2022-09-03T08:35:05;4.90;;;3.70;;
20627;SDS011;10473;42.734;24.258;2022-09-03T08:37:34;3.90;;;3.50;;
20627;SDS011;10473;42.734;24.258;2022-09-03T08:40:02;3.90;;;3.53;;
20627;SDS011;10473;42.734;24.258;2022-09-03T08:42:32;5.13;;;3.47;;
20627;SDS011;10473;42.734;24.258;2022-09-03T08:45:12;3.97;;;3.50;;
20627;SDS011;10473;42.734;24.258;2022-09-03T08:47:43;4.43;;;3.00;;
20627;SDS011;10473;42.734;24.258;2022-09-03T08:50:16;4.20;;;3.30;;
20627;SDS011;10473;42.734;24.258;2022-09-03T08:52:51;5.23;;;4.30;;
20627;SDS011;10473;42.734;24.258;2022-09-03T08:55:25;4.60;;;4.00;;
20627;SDS011;10473;42.734;24.258;2022-09-03T08:57:56;4.33;;;3.93;;
20627;SDS011;10473;42.734;24.258;2022-09-03T09:00:35;3.90;;;3.50;;
20627;SDS011;10473;42.734;24.258;2022-09-03T09:03:16;9.67;;;4.40;;
20627;SDS011;10473;42.734;24.258;2022-09-03T09:05:58;5.00;;;4.10;;
20627;SDS011;10473;42.734;24.258;2022-09-03T09:08:34;4.83;;;4.33;;
20627;SDS011;10473;42.734;24.258;2022-09-03T09:11:12;4.97;;;4.17;;
20627;SDS011;10473;42.734;24.258;2022-09-03T09:13:55;3.87;;;3.47;;
20627;SDS011;10473;42.734;24.258;2022-09-03T09:16:31;4.17;;;3.77;;
20627;SDS011;10473;42.734;24.258;2022-09-03T09:19:09;9.60;;;6.17;;
20627;SDS011;10473;42.734;24.258;2022-09-03T09:21:48;6.53;;;5.17;;
20627;SDS011;10473;42.734;24.258;2022-09-03T09:24:21;5.90;;;4.90;;
20627;SDS011;10473;42.734;24.258;2022-09-03T09:26:53;4.50;;;4.10;;
20627;SDS011;10473;42.734;24.258;2022-09-03T09:29:25;4.67;;;4.00;;
20627;SDS011;10473;42.734;24.258;2022-09-03T09:31:57;3.60;;;3.30;;
20627;SDS011;10473;42.734;24.258;2022-09-03T09:34:26;4.37;;;3.97;;
20627;SDS011;10473;42.734;24.258;2022-09-03T09:36:54;4.57;;;4.10;;
20627;SDS011;10473;42.734;24.258;2022-09-03T09:39:22;5.37;;;4.87;;
20627;SDS011;10473;42.734;24.258;2022-09-03T09:41:57;4.70;;;4.20;;
20627;SDS011;10473;42.734;24.258;2022-09-03T09:44:26;5.00;;;4.20;;
20627;SDS011;10473;42.734;24.258;2022-09-03T09:47:01;7.40;;;4.63;;
20627;SDS011;10473;42.734;24.258;2022-09-03T09:49:32;4.63;;;4.03;;
20627;SDS011;10473;42.734;24.258;2022-09-03T09:52:02;5.43;;;4.93;;
20627;SDS011;10473;42.734;24.258;2022-09-03T09:54:34;5.10;;;4.00;;
20627;SDS011;10473;42.734;24.258;2022-09-03T09:57:02;6.67;;;5.43;;
20627;SDS011;10473;42.734;24.258;2022-09-03T09:59:33;4.67;;;4.17;;
20627;SDS011;10473;42.734;24.258;2022-09-03T10:02:08;5.33;;;4.37;;
20627;SDS011;10473;42.734;24.258;2022-09-03T10:04:38;4.50;;;3.50;;
20627;SDS011;10473;42.734;24.258;2022-09-03T10:07:17;5.20;;;3.77;;
20627;SDS011;10473;42.734;24.258;2022-09-03T10:12:35;4.23;;;3.83;;
20627;SDS011;10473;42.734;24.258;2022-09-03T10:15:14;3.87;;;3.43;;
20627;SDS011;10473;42.734;24.258;2022-09-03T10:17:57;4.20;;;3.73;;
20627;SDS011;10473;42.734;24.258;2022-09-03T10:20:33;4.43;;;3.97;;
20627;SDS011;10473;42.734;24.258;2022-09-03T10:23:10;4.17;;;3.80;;
20627;SDS011;10473;42.734;24.258;2022-09-03T10:25:47;4.83;;;4.37;;
20627;SDS011;10473;42.734;24.258;2022-09-03T10:28:29;4.60;;;3.93;;
20627;SDS011;10473;42.734;24.258;2022-09-03T10:31:16;4.43;;;3.97;;
20627;SDS011;10473;42.734;24.258;2022-09-03T10:33:55;4.13;;;3.73;;
20627;SDS011;10473;42.734;24.258;2022-09-03T10:36:27;6.07;;;4.53;;
20627;SDS011;10473;42.734;24.258;2022-09-03T10:39:01;4.43;;;4.03;;
20627;SDS011;10473;42.734;24.258;2022-09-03T10:41:39;4.30;;;3.87;;
20627;SDS011;10473;42.734;24.258;2022-09-03T10:44:28;4.97;;;4.20;;
20627;SDS011;10473;42.734;24.258;2022-09-03T10:47:10;7.73;;;4.77;;
20627;SDS011;10473;42.734;24.258;2022-09-03T10:49:49;4.97;;;4.57;;
20627;SDS011;10473;42.734;24.258;2022-09-03T10:52:27;5.20;;;4.60;;
20627;SDS011;10473;42.734;24.258;2022-09-03T10:55:08;4.70;;;4.30;;
20627;SDS011;10473;42.734;24.258;2022-09-03T10:57:44;3.63;;;3.33;;
20627;SDS011;10473;42.734;24.258;2022-09-03T11:00:21;4.87;;;3.87;;
20627;SDS011;10473;42.734;24.258;2022-09-03T11:06:06;4.50;;;3.90;;
20627;SDS011;10473;42.734;24.258;2022-09-03T11:08:39;4.13;;;3.50;;
20627;SDS011;10473;42.734;24.258;2022-09-03T11:11:12;4.13;;;3.80;;
20627;SDS011;10473;42.734;24.258;2022-09-03T11:13:46;4.83;;;4.23;;
20627;SDS011;10473;42.734;24.258;2022-09-03T11:16:19;4.37;;;3.93;;
20627;SDS011;10473;42.734;24.258;2022-09-03T11:18:53;4.80;;;4.40;;
20627;SDS011;10473;42.734;24.258;2022-09-03T11:21:25;4.33;;;3.80;;
20627;SDS011;10473;42.734;24.258;2022-09-03T11:24:00;4.70;;;4.30;;
20627;SDS011;10473;42.734;24.258;2022-09-03T11:26:33;4.93;;;4.43;;
20627;SDS011;10473;42.734;24.258;2022-09-03T11:29:03;3.43;;;3.13;;
20627;SDS011;10473;42.734;24.258;2022-09-03T11:31:48;4.80;;;3.70;;
20627;SDS011;10473;42.734;24.258;2022-09-03T11:34:30;3.73;;;3.23;;
20627;SDS011;10473;42.734;24.258;2022-09-03T11:37:14;4.23;;;3.63;;
20627;SDS011;10473;42.734;24.258;2022-09-03T11:39:51;3.80;;;3.40;;
20627;SDS011;10473;42.734;24.258;2022-09-03T11:42:29;3.33;;;3.03;;
20627;SDS011;10473;42.734;24.258;2022-09-03T11:45:11;5.13;;;3.27;;
20627;SDS011;10473;42.734;24.258;2022-09-03T11:47:46;3.43;;;3.13;;
20627;SDS011;10473;42.734;24.258;2022-09-03T11:50:19;3.40;;;3.10;;
20627;SDS011;10473;42.734;24.258;2022-09-03T11:52:51;2.87;;;2.67;;
20627;SDS011;10473;42.734;24.258;2022-09-03T11:55:25;3.07;;;2.73;;
20627;SDS011;10473;42.734;24.258;2022-09-03T11:57:58;2.63;;;2.33;;
20627;SDS011;10473;42.734;24.258;2022-09-03T12:00:36;2.50;;;2.23;;
20627;SDS011;10473;42.734;24.258;2022-09-03T12:03:11;3.87;;;2.37;;
20627;SDS011;10473;42.734;24.258;2022-09-03T12:05:42;2.13;;;1.67;;
20627;SDS011;10473;42.734;24.258;2022-09-03T12:11:33;2.10;;;1.83;;
20627;SDS011;10473;42.734;24.258;2022-09-03T12:14:09;2.13;;;1.93;;
20627;SDS011;10473;42.734;24.258;2022-09-03T12:16:49;1.20;;;1.10;;
20627;SDS011;10473;42.734;24.258;2022-09-03T12:19:26;1.47;;;1.37;;
20627;SDS011;10473;42.734;24.258;2022-09-03T12:21:59;1.13;;;1.03;;
20627;SDS011;10473;42.734;24.258;2022-09-03T12:24:30;1.43;;;1.13;;
20627;SDS011;10473;42.734;24.258;2022-09-03T12:27:00;1.77;;;1.67;;
20627;SDS011;10473;42.734;24.258;2022-09-03T12:29:29;1.10;;;1.00;;
20627;SDS011;10473;42.734;24.258;2022-09-03T12:32:08;1.33;;;1.17;;
20627;SDS011;10473;42.734;24.258;2022-09-03T12:34:38;2.43;;;1.30;;
20627;SDS011;10473;42.734;24.258;2022-09-03T12:37:20;1.50;;;1.10;;
20627;SDS011;10473;42.734;24.258;2022-09-03T12:39:52;0.80;;;0.80;;
20627;SDS011;10473;42.734;24.258;2022-09-03T12:42:22;1.93;;;0.80;;
20627;SDS011;10473;42.734;24.258;2022-09-03T12:44:53;0.70;;;0.70;;
20627;SDS011;10473;42.734;24.258;2022-09-03T12:47:21;1.00;;;0.70;;
20627;SDS011;10473;42.734;24.258;2022-09-03T12:49:50;0.67;;;0.60;;
20627;SDS011;10473;42.734;24.258;2022-09-03T12:52:19;0.73;;;0.70;;
20627;SDS011;10473;42.734;24.258;2022-09-03T12:54:54;0.80;;;0.80;;
20627;SDS011;10473;42.734;24.258;2022-09-03T12:57:27;1.40;;;1.30;;
20627;SDS011;10473;42.734;24.258;2022-09-03T13:00:03;1.13;;;1.03;;
20627;SDS011;10473;42.734;24.258;2022-09-03T13:02:35;0.80;;;0.80;;
20627;SDS011;10473;42.734;24.258;2022-09-03T13:05:07;1.13;;;1.03;;
20627;SDS011;10473;42.734;24.258;2022-09-03T13:07:42;1.07;;;0.90;;
20627;SDS011;10473;42.734;24.258;2022-09-03T13:10:22;1.03;;;0.97;;
20627;SDS011;10473;42.734;24.258;2022-09-03T13:12:58;0.87;;;0.87;;
20627;SDS011;10473;42.734;24.258;2022-09-03T13:15:27;1.40;;;0.97;;
20627;SDS011;10473;42.734;24.258;2022-09-03T13:18:00;0.63;;;0.63;;
20627;SDS011;10473;42.734;24.258;2022-09-03T13:20:41;0.77;;;0.77;;
20627;SDS011;10473;42.734;24.258;2022-09-03T13:23:24;0.80;;;0.70;;
20627;SDS011;10473;42.734;24.258;2022-09-03T13:26:05;0.80;;;0.80;;
20627;SDS011;10473;42.734;24.258;2022-09-03T13:28:49;0.87;;;0.70;;
20627;SDS011;10473;42.734;24.258;2022-09-03T13:31:31;0.77;;;0.67;;
20627;SDS011;10473;42.734;24.258;2022-09-03T13:34:05;1.03;;;0.77;;
20627;SDS011;10473;42.734;24.258;2022-09-03T13:36:41;0.67;;;0.67;;
20627;SDS011;10473;42.734;24.258;2022-09-03T13:39:19;1.10;;;0.70;;
20627;SDS011;10473;42.734;24.258;2022-09-03T13:41:53;0.70;;;0.70;;
20627;SDS011;10473;42.734;24.258;2022-09-03T13:44:33;0.50;;;0.50;;
20627;SDS011;10473;42.734;24.258;2022-09-03T13:47:08;0.50;;;0.50;;
20627;SDS011;10473;42.734;24.258;2022-09-03T13:49:40;1.10;;;0.93;;
20627;SDS011;10473;42.734;24.258;2022-09-03T13:52:33;0.67;;;0.53;;
20627;SDS011;10473;42.734;24.258;2022-09-03T13:55:07;0.50;;;0.50;;
20627;SDS011;10473;42.734;24.258;2022-09-03T13:57:44;0.60;;;0.60;;
20627;SDS011;10473;42.734;24.258;2022-09-03T14:00:22;0.87;;;0.50;;
20627;SDS011;10473;42.734;24.258;2022-09-03T14:02:54;0.70;;;0.63;;
20627;SDS011;10473;42.734;24.258;2022-09-03T14:05:39;1.10;;;1.00;;
20627;SDS011;10473;42.734;24.258;2022-09-03T14:08:17;0.77;;;0.63;;
20627;SDS011;10473;42.734;24.258;2022-09-03T14:10:58;0.70;;;0.67;;
20627;SDS011;10473;42.734;24.258;2022-09-03T14:13:44;1.77;;;0.83;;
20627;SDS011;10473;42.734;24.258;2022-09-03T14:16:25;1.63;;;0.90;;
20627;SDS011;10473;42.734;24.258;2022-09-03T14:19:02;0.80;;;0.60;;
20627;SDS011;10473;42.734;24.258;2022-09-03T14:21:38;0.83;;;0.80;;
20627;SDS011;10473;42.734;24.258;2022-09-03T14:24:13;1.00;;;0.90;;
20627;SDS011;10473;42.734;24.258;2022-09-03T14:26:49;1.33;;;0.90;;
20627;SDS011;10473;42.734;24.258;2022-09-03T14:29:22;0.90;;;0.90;;
20627;SDS011;10473;42.734;24.258;2022-09-03T14:32:01;1.23;;;1.10;;
20627;SDS011;10473;42.734;24.258;2022-09-03T14:34:42;1.10;;;1.00;;
20627;SDS011;10473;42.734;24.258;2022-09-03T14:37:32;1.77;;;0.80;;
20627;SDS011;10473;42.734;24.258;2022-09-03T14:40:13;2.07;;;1.30;;
20627;SDS011;10473;42.734;24.258;2022-09-03T14:42:52;1.20;;;1.00;;
20627;SDS011;10473;42.734;24.258;2022-09-03T14:45:39;3.57;;;1.00;;
20627;SDS011;10473;42.734;24.258;2022-09-03T14:51:15;0.80;;;0.80;;
20627;SDS011;10473;42.734;24.258;2022-09-03T14:53:54;1.37;;;1.20;;
20627;SDS011;10473;42.734;24.258;2022-09-03T14:56:44;1.07;;;0.97;;
20627;SDS011;10473;42.734;24.258;2022-09-03T14:59:25;1.33;;;1.00;;
20627;SDS011;10473;42.734;24.258;2022-09-03T15:02:22;1.10;;;1.00;;
20627;SDS011;10473;42.734;24.258;2022-09-03T15:05:08;1.10;;;1.00;;
20627;SDS011;10473;42.734;24.258;2022-09-03T15:07:41;1.03;;;0.80;;
20627;SDS011;10473;42.734;24.258;2022-09-03T15:10:16;0.80;;;0.80;;
20627;SDS011;10473;42.734;24.258;2022-09-03T15:12:54;0.80;;;0.80;;
20627;SDS011;10473;42.734;24.258;2022-09-03T15:15:26;1.03;;;0.90;;
20627;SDS011;10473;42.734;24.258;2022-09-03T15:18:03;1.37;;;1.13;;
20627;SDS011;10473;42.734;24.258;2022-09-03T15:20:45;1.10;;;1.00;;
20627;SDS011;10473;42.734;24.258;2022-09-03T15:23:22;1.10;;;0.97;;